Time;durP1;ratioP1;P1;durP2;ratioP2;P2;SDS_P1;SDS_P2;PMS_P1;PMS_P2;Temp;Humidity;BMP_temperature;BMP_pressure;BME280_temperature;BME280_humidity;BME280_pressure;Samples;Min_cycle;Max_cycle;Signal;HPM_P1;HPM_P2
2023/08/23 00:00:44;;;;;;;;;;;27.10;92.20;;;;;;5074905;28;19908;-69
2023/08/23 00:03:10;;;;;;;;;;;27.10;92.30;;;;;;5074935;28;20347;-68
2023/08/23 00:05:35;;;;;;;;;;;27.20;92.30;;;;;;5074886;28;19916;-67
2023/08/23 00:08:01;;;;;;;;;;;27.20;92.30;;;;;;5074700;28;19913;-68
2023/08/23 00:10:26;;;;;;;;;;;27.10;92.20;;;;;;5074750;28;19917;-69
2023/08/23 00:12:53;;;;;;;;;;;27.10;92.20;;;;;;5074726;28;19955;-67
2023/08/23 00:15:19;;;;;;;;;;;27.20;92.30;;;;;;5074346;28;20377;-69
2023/08/23 00:17:44;;;;;;;;;;;27.10;92.20;;;;;;5074679;28;19951;-67
2023/08/23 00:20:10;;;;;;;;;;;27.20;92.20;;;;;;5074946;28;19930;-68
2023/08/23 00:22:35;;;;;;;;;;;27.10;92.20;;;;;;5074532;28;19908;-66
2023/08/23 00:25:01;;;;;;;;;;;27.10;92.20;;;;;;5074270;28;19912;-70
2023/08/23 00:27:27;;;;;;;;;;;27.20;92.20;;;;;;5074169;28;19912;-69
2023/08/23 00:29:52;;;;;;;;;;;27.20;92.20;;;;;;5074351;28;19913;-69
2023/08/23 00:32:18;;;;;;;;;;;27.20;92.20;;;;;;5074108;28;19913;-69
2023/08/23 00:34:43;;;;;;;;;;;27.10;92.20;;;;;;5074376;28;19913;-68
2023/08/23 00:37:09;;;;;;;;;;;27.20;92.20;;;;;;5074071;28;19975;-68
2023/08/23 00:39:34;;;;;;;;;;;27.20;92.20;;;;;;5073902;28;19916;-68
2023/08/23 00:42:00;;;;;;;;;;;27.20;92.20;;;;;;5074258;28;20003;-68
2023/08/23 00:44:25;;;;;;;;;;;27.20;92.20;;;;;;5073766;28;19912;-68
2023/08/23 00:46:51;;;;;;;;;;;27.20;92.20;;;;;;5074117;28;20390;-69
2023/08/23 00:49:16;;;;;;;;;;;27.20;92.20;;;;;;5074067;28;20015;-68
2023/08/23 00:51:42;;;;;;;;;;;27.20;92.20;;;;;;5074128;28;20382;-68
2023/08/23 00:54:09;;;;;;;;;;;27.20;92.20;;;;;;5073919;28;19931;-67
2023/08/23 00:56:36;;;;;;;;;;;27.20;92.20;;;;;;5074171;28;19908;-68
2023/08/23 00:59:01;;;;;;;;;;;27.20;92.20;;;;;;5074209;28;19909;-68
2023/08/23 01:01:27;;;;;;;;;;;27.20;92.20;;;;;;5074012;28;19914;-69
2023/08/23 01:03:55;;;;;;;;;;;27.20;92.20;;;;;;5073940;28;19908;-67
2023/08/23 01:06:23;;;;;;;;;;;27.20;92.20;;;;;;5074300;28;20371;-68
2023/08/23 01:08:51;;;;;;;;;;;27.20;92.20;;;;;;5073867;28;19913;-69
2023/08/23 01:11:20;;;;;;;;;;;27.20;92.20;;;;;;5073942;28;19916;-69
2023/08/23 01:13:59;;;;;;;;;;;27.20;92.20;;;;;;5073832;28;19999;-69
2023/08/23 01:16:25;;;;;;;;;;;27.20;92.20;;;;;;5073573;28;20294;-68
2023/08/23 01:18:51;;;;;;;;;;;27.20;92.20;;;;;;5073565;28;19999;-68
2023/08/23 01:21:20;;;;;;;;;;;27.20;92.20;;;;;;5073722;28;19912;-68
2023/08/23 01:23:45;;;;;;;;;;;27.20;92.20;;;;;;5073783;28;19909;-67
2023/08/23 01:26:11;;;;;;;;;;;27.20;92.20;;;;;;5073443;28;19908;-68
2023/08/23 01:28:36;;;;;;;;;;;27.20;92.20;;;;;;5073756;28;19917;-65
2023/08/23 01:31:05;;;;;;;;;;;27.20;92.20;;;;;;5073676;28;19936;-69
2023/08/23 01:33:39;;;;;;;;;;;27.20;92.20;;;;;;5073417;28;19909;-68
2023/08/23 01:36:16;;;;;;;;;;;27.20;92.20;;;;;;5073703;28;20007;-67
2023/08/23 01:38:42;;;;;;;;;;;27.20;92.20;;;;;;5073374;28;19914;-68
2023/08/23 01:41:07;;;;;;;;;;;27.20;92.20;;;;;;5073571;28;19909;-68
2023/08/23 01:43:33;;;;;;;;;;;27.20;92.20;;;;;;5073322;28;19970;-69
2023/08/23 01:45:58;;;;;;;;;;;27.20;92.20;;;;;;5073060;28;19928;-69
2023/08/23 01:48:24;;;;;;;;;;;27.20;92.20;;;;;;5073410;28;19912;-68
2023/08/23 01:50:52;;;;;;;;;;;27.20;92.20;;;;;;5073154;28;20004;-68
2023/08/23 01:53:18;;;;;;;;;;;27.20;92.20;;;;;;5073424;28;19909;-68
2023/08/23 01:55:43;;;;;;;;;;;27.20;92.20;;;;;;5073411;28;19962;-68
2023/08/23 01:58:09;;;;;;;;;;;27.20;92.20;;;;;;5074358;28;20275;-68
2023/08/23 02:00:34;;;;;;;;;;;27.20;92.20;;;;;;5077013;28;19915;-68
2023/08/23 02:03:01;;;;;;;;;;;27.20;92.20;;;;;;5077593;28;19975;-68
2023/08/23 02:05:26;;;;;;;;;;;27.20;92.20;;;;;;5077084;28;19913;-68
2023/08/23 02:07:52;;;;;;;;;;;27.20;92.20;;;;;;5077378;28;19934;-68
2023/08/23 02:10:17;;;;;;;;;;;27.20;92.20;;;;;;5077111;28;19936;-68
2023/08/23 02:12:43;;;;;;;;;;;27.20;92.20;;;;;;5076752;28;19908;-68
2023/08/23 02:15:08;;;;;;;;;;;27.20;92.20;;;;;;5076991;28;20266;-67
2023/08/23 02:17:34;;;;;;;;;;;27.20;92.20;;;;;;5076700;28;19909;-69
2023/08/23 02:19:59;;;;;;;;;;;27.20;92.20;;;;;;5077032;28;20007;-69
2023/08/23 02:22:25;;;;;;;;;;;27.20;92.20;;;;;;5076713;28;20310;-68
2023/08/23 02:24:50;;;;;;;;;;;27.20;92.20;;;;;;5076943;28;19908;-68
2023/08/23 02:27:15;;;;;;;;;;;27.20;92.20;;;;;;5076944;28;19912;-69
2023/08/23 02:29:41;;;;;;;;;;;27.20;92.20;;;;;;5076758;28;19919;-68
2023/08/23 02:32:06;;;;;;;;;;;27.20;92.20;;;;;;5077251;28;19962;-68
2023/08/23 02:34:32;;;;;;;;;;;27.20;92.20;;;;;;5076533;28;20344;-68
2023/08/23 02:36:57;;;;;;;;;;;27.20;92.20;;;;;;5076715;28;20386;-68
2023/08/23 02:39:23;;;;;;;;;;;27.20;92.20;;;;;;5076685;28;19909;-68
2023/08/23 02:41:48;;;;;;;;;;;27.20;92.20;;;;;;5076598;28;19973;-68
2023/08/23 02:44:14;;;;;;;;;;;27.20;92.20;;;;;;5076851;28;19915;-68
2023/08/23 02:46:39;;;;;;;;;;;27.20;92.20;;;;;;5076975;28;19927;-68
2023/08/23 02:49:05;;;;;;;;;;;27.20;92.20;;;;;;5076187;28;20023;-68
2023/08/23 02:51:30;;;;;;;;;;;27.20;92.20;;;;;;5076417;28;20286;-68
2023/08/23 02:53:55;;;;;;;;;;;27.20;92.20;;;;;;5076377;28;19909;-68
2023/08/23 02:56:21;;;;;;;;;;;27.20;92.20;;;;;;5076409;28;19908;-68
2023/08/23 02:58:47;;;;;;;;;;;27.20;92.20;;;;;;5076321;28;20262;-68
2023/08/23 03:01:12;;;;;;;;;;;27.20;92.20;;;;;;5076248;28;19916;-69
2023/08/23 03:03:38;;;;;;;;;;;27.20;92.20;;;;;;5075932;28;19909;-68
2023/08/23 03:06:03;;;;;;;;;;;27.20;92.20;;;;;;5076153;28;19908;-69
2023/08/23 03:08:29;;;;;;;;;;;27.20;92.20;;;;;;5108900;28;20007;-68
2023/08/23 03:11:02;;;;;;;;;;;27.30;92.20;;;;;;5074942;28;20404;-68
2023/08/23 03:13:28;;;;;;;;;;;27.20;92.20;;;;;;5075858;28;19909;-68
2023/08/23 03:15:54;;;;;;;;;;;27.20;92.20;;;;;;5076281;28;19916;-68
2023/08/23 03:18:19;;;;;;;;;;;27.20;92.10;;;;;;5075904;28;19953;-68
2023/08/23 03:20:45;;;;;;;;;;;27.20;92.10;;;;;;5075581;28;19995;-68
2023/08/23 03:23:10;;;;;;;;;;;27.20;92.20;;;;;;5075816;28;19989;-67
2023/08/23 03:25:36;;;;;;;;;;;27.20;92.20;;;;;;5075779;28;19919;-68
2023/08/23 03:28:02;;;;;;;;;;;27.20;92.20;;;;;;5075292;28;20447;-68
2023/08/23 03:30:27;;;;;;;;;;;27.20;92.10;;;;;;5075613;28;19913;-68
2023/08/23 03:32:53;;;;;;;;;;;27.20;92.20;;;;;;5075576;28;19931;-68
2023/08/23 03:35:18;;;;;;;;;;;27.20;92.20;;;;;;5075230;28;19963;-68
2023/08/23 03:37:44;;;;;;;;;;;27.20;92.20;;;;;;5075612;28;19909;-68
2023/08/23 03:40:09;;;;;;;;;;;27.20;92.20;;;;;;5075546;28;20066;-68
2023/08/23 03:42:35;;;;;;;;;;;27.20;92.20;;;;;;5108236;28;19958;-68
2023/08/23 03:45:00;;;;;;;;;;;27.20;92.20;;;;;;5075071;28;19982;-68
2023/08/23 03:47:26;;;;;;;;;;;27.20;92.10;;;;;;5075125;28;19947;-68
2023/08/23 03:49:51;;;;;;;;;;;27.20;92.20;;;;;;5075271;28;20011;-68
2023/08/23 03:52:17;;;;;;;;;;;27.20;92.10;;;;;;5075344;28;19916;-67
2023/08/23 03:54:42;;;;;;;;;;;27.20;92.20;;;;;;5074964;28;20400;-68
2023/08/23 03:57:08;;;;;;;;;;;27.20;92.20;;;;;;5074912;28;19931;-66
2023/08/23 03:59:33;;;;;;;;;;;27.20;92.20;;;;;;5075134;28;19999;-68
2023/08/23 04:01:58;;;;;;;;;;;27.20;92.10;;;;;;5075084;28;19908;-70
2023/08/23 04:04:24;;;;;;;;;;;27.20;92.20;;;;;;5074637;28;19995;-68
2023/08/23 04:06:49;;;;;;;;;;;27.20;92.50;;;;;;5107723;28;19916;-68
2023/08/23 04:09:15;;;;;;;;;;;27.20;90.90;;;;;;5074540;28;20389;-70
2023/08/23 04:11:40;;;;;;;;;;;27.20;90.80;;;;;;5074494;28;19916;-63
2023/08/23 04:14:06;;;;;;;;;;;27.20;90.30;;;;;;5074537;28;19966;-66
2023/08/23 04:16:32;;;;;;;;;;;27.10;90.30;;;;;;5074651;28;19931;-62
2023/08/23 04:18:57;;;;;;;;;;;27.10;90.20;;;;;;5074588;28;19912;-60
2023/08/23 04:21:24;;;;;;;;;;;27.10;90.10;;;;;;5075751;28;19943;-62
2023/08/23 04:23:50;;;;;;;;;;;27.10;90.10;;;;;;5085163;28;19919;-66
2023/08/23 04:26:15;;;;;;;;;;;27.10;90.20;;;;;;5093556;28;19912;-63
2023/08/23 04:28:41;;;;;;;;;;;27.10;90.20;;;;;;5094745;28;19958;-66
2023/08/23 04:31:06;;;;;;;;;;;27.10;90.20;;;;;;5077226;28;20023;-66
2023/08/23 04:33:34;;;;;;;;;;;27.10;90.30;;;;;;5087381;28;19940;-64
2023/08/23 04:36:00;;;;;;;;;;;27.10;90.30;;;;;;5080409;28;19913;-66
2023/08/23 04:38:26;;;;;;;;;;;27.10;90.30;;;;;;5091832;28;19908;-66
2023/08/23 04:41:01;;;;;;;;;;;27.10;90.40;;;;;;5088599;28;19920;-68
2023/08/23 04:43:27;;;;;;;;;;;27.10;90.40;;;;;;5092545;28;20385;-69
2023/08/23 04:45:54;;;;;;;;;;;27.10;90.60;;;;;;5093517;28;19920;-70
2023/08/23 04:48:20;;;;;;;;;;;27.10;90.70;;;;;;5085365;28;19916;-69
2023/08/23 04:50:49;;;;;;;;;;;27.10;90.80;;;;;;5074419;28;19958;-69
2023/08/23 04:53:15;;;;;;;;;;;27.10;90.90;;;;;;5089052;28;20011;-68
2023/08/23 04:55:40;;;;;;;;;;;27.10;90.90;;;;;;5094079;28;19950;-68
2023/08/23 04:58:06;;;;;;;;;;;27.10;91.00;;;;;;5093049;28;20317;-69
2023/08/23 05:00:32;;;;;;;;;;;27.10;91.00;;;;;;5094213;28;19919;-69
2023/08/23 05:02:57;;;;;;;;;;;27.10;91.10;;;;;;5093725;28;20002;-69
2023/08/23 05:05:23;;;;;;;;;;;27.10;91.10;;;;;;5094204;28;19998;-70
2023/08/23 05:07:49;;;;;;;;;;;27.10;91.10;;;;;;5094297;28;20239;-70
2023/08/23 05:10:15;;;;;;;;;;;27.10;91.10;;;;;;5094100;28;20064;-69
2023/08/23 05:12:40;;;;;;;;;;;27.10;91.20;;;;;;5094086;28;19912;-70
2023/08/23 05:15:06;;;;;;;;;;;27.10;91.20;;;;;;5093872;28;19919;-70
2023/08/23 05:17:31;;;;;;;;;;;27.10;91.20;;;;;;5093800;28;19915;-70
2023/08/23 05:19:57;;;;;;;;;;;27.20;91.20;;;;;;5093521;28;19909;-70
2023/08/23 05:22:22;;;;;;;;;;;27.10;91.20;;;;;;5092900;28;19916;-69
2023/08/23 05:24:48;;;;;;;;;;;27.10;91.20;;;;;;5093843;28;19931;-69
2023/08/23 05:27:13;;;;;;;;;;;27.20;91.30;;;;;;5093705;28;19912;-68
2023/08/23 05:29:39;;;;;;;;;;;27.20;91.30;;;;;;5093738;28;19938;-68
2023/08/23 05:32:04;;;;;;;;;;;27.10;91.20;;;;;;5094226;28;19943;-68
2023/08/23 05:34:30;;;;;;;;;;;27.10;91.20;;;;;;5095449;28;19999;-68
2023/08/23 05:36:55;;;;;;;;;;;27.10;91.30;;;;;;5097920;28;20189;-69
2023/08/23 05:39:20;;;;;;;;;;;27.20;91.30;;;;;;5097730;28;19908;-69
2023/08/23 05:41:46;;;;;;;;;;;27.20;91.30;;;;;;5097929;28;20006;-68
2023/08/23 05:44:11;;;;;;;;;;;27.10;91.30;;;;;;5096748;28;19908;-69
2023/08/23 05:46:37;;;;;;;;;;;27.10;91.30;;;;;;5097742;28;19974;-70
2023/08/23 05:49:02;;;;;;;;;;;27.20;91.30;;;;;;5097900;28;19965;-70
2023/08/23 05:51:28;;;;;;;;;;;27.10;91.30;;;;;;5098114;28;19919;-71
2023/08/23 05:53:54;;;;;;;;;;;27.20;91.30;;;;;;5097422;28;19915;-70
2023/08/23 05:56:19;;;;;;;;;;;27.10;91.30;;;;;;5097264;28;19908;-70
2023/08/23 05:58:45;;;;;;;;;;;27.10;91.30;;;;;;5097200;28;19908;-69
2023/08/23 06:01:10;;;;;;;;;;;27.10;91.30;;;;;;5097592;28;19908;-70
2023/08/23 06:03:36;;;;;;;;;;;27.10;91.30;;;;;;5097508;28;20002;-69
2023/08/23 06:06:02;;;;;;;;;;;27.10;91.30;;;;;;5097430;28;19916;-69
2023/08/23 06:08:28;;;;;;;;;;;27.10;91.30;;;;;;5096027;28;19912;-69
2023/08/23 06:10:53;;;;;;;;;;;27.10;91.30;;;;;;5097058;28;19958;-69
2023/08/23 06:13:19;;;;;;;;;;;27.20;91.30;;;;;;5096968;28;19966;-69
2023/08/23 06:15:44;;;;;;;;;;;27.10;91.30;;;;;;5097292;28;19908;-65
2023/08/23 06:18:10;;;;;;;;;;;27.10;91.30;;;;;;5097254;28;19913;-70
2023/08/23 06:20:35;;;;;;;;;;;27.10;91.30;;;;;;5097196;28;20381;-70
2023/08/23 06:23:01;;;;;;;;;;;27.10;91.30;;;;;;5097096;28;19961;-69
2023/08/23 06:25:27;;;;;;;;;;;27.10;91.30;;;;;;5078811;28;19942;-70
2023/08/23 06:27:52;;;;;;;;;;;27.20;91.30;;;;;;5096606;28;19915;-70
2023/08/23 06:30:18;;;;;;;;;;;27.20;91.40;;;;;;5097089;28;19976;-70
2023/08/23 06:32:47;;;;;;;;;;;27.20;91.40;;;;;;5096659;28;19927;-69
2023/08/23 06:35:13;;;;;;;;;;;27.10;91.30;;;;;;5096450;28;20255;-69
2023/08/23 06:37:38;;;;;;;;;;;27.10;91.30;;;;;;5097066;28;19963;-70
2023/08/23 06:40:04;;;;;;;;;;;27.20;91.40;;;;;;5096775;28;19916;-70
2023/08/23 06:42:30;;;;;;;;;;;27.20;91.40;;;;;;5096522;28;20274;-70
2023/08/23 06:44:55;;;;;;;;;;;27.20;91.40;;;;;;5096296;28;19974;-70
2023/08/23 06:47:21;;;;;;;;;;;27.20;91.40;;;;;;5096436;28;19908;-70
2023/08/23 06:49:46;;;;;;;;;;;27.20;91.40;;;;;;5096581;28;19916;-70
2023/08/23 06:52:12;;;;;;;;;;;27.20;91.40;;;;;;5096294;28;20003;-69
2023/08/23 06:54:37;;;;;;;;;;;27.20;91.40;;;;;;5096443;28;20343;-70
2023/08/23 06:57:03;;;;;;;;;;;27.20;91.40;;;;;;5096020;28;19908;-70
2023/08/23 06:59:28;;;;;;;;;;;27.20;91.40;;;;;;5096128;28;19908;-70
2023/08/23 07:01:54;;;;;;;;;;;27.20;91.40;;;;;;5096112;28;20002;-69
2023/08/23 07:04:19;;;;;;;;;;;27.20;91.40;;;;;;5096157;28;19981;-69
2023/08/23 07:06:45;;;;;;;;;;;27.20;91.40;;;;;;5096105;28;20015;-69
2023/08/23 07:09:10;;;;;;;;;;;27.20;91.40;;;;;;5095933;28;19912;-69
2023/08/23 07:11:36;;;;;;;;;;;27.20;91.40;;;;;;5095921;28;19976;-69
2023/08/23 07:14:01;;;;;;;;;;;27.20;91.40;;;;;;5095983;28;19915;-69
2023/08/23 07:16:26;;;;;;;;;;;27.20;91.40;;;;;;5095671;28;19919;-70
2023/08/23 07:18:52;;;;;;;;;;;27.20;91.40;;;;;;5096078;28;19914;-70
2023/08/23 07:21:17;;;;;;;;;;;27.20;91.40;;;;;;5095599;28;19914;-70
2023/08/23 07:23:43;;;;;;;;;;;27.20;91.40;;;;;;5095816;28;19915;-69
2023/08/23 07:26:09;;;;;;;;;;;27.20;91.40;;;;;;5095881;28;20351;-70
2023/08/23 07:28:34;;;;;;;;;;;27.20;91.40;;;;;;5095425;28;19912;-70
2023/08/23 07:31:02;;;;;;;;;;;27.20;91.40;;;;;;5095904;28;19966;-69
2023/08/23 07:33:28;;;;;;;;;;;27.20;91.40;;;;;;5096074;28;19908;-69
2023/08/23 07:35:54;;;;;;;;;;;27.20;91.50;;;;;;5095370;28;19916;-70
2023/08/23 07:38:20;;;;;;;;;;;27.20;91.50;;;;;;5095577;28;19916;-69
2023/08/23 07:40:45;;;;;;;;;;;27.20;91.50;;;;;;5095372;28;19912;-69
2023/08/23 07:43:11;;;;;;;;;;;27.20;91.50;;;;;;5095898;28;19908;-70
2023/08/23 07:45:36;;;;;;;;;;;27.20;91.50;;;;;;5095354;28;19972;-70
2023/08/23 07:48:02;;;;;;;;;;;27.20;91.50;;;;;;5095296;28;20402;-69
2023/08/23 07:50:27;;;;;;;;;;;27.20;91.50;;;;;;5095139;28;19912;-69
2023/08/23 07:52:53;;;;;;;;;;;27.20;91.50;;;;;;5095360;28;19948;-69
2023/08/23 07:55:18;;;;;;;;;;;27.20;91.50;;;;;;5095146;28;19908;-70
2023/08/23 07:57:44;;;;;;;;;;;27.20;91.50;;;;;;5095126;28;20244;-70
2023/08/23 08:00:10;;;;;;;;;;;27.20;91.50;;;;;;5095011;28;20002;-70
2023/08/23 08:02:35;;;;;;;;;;;27.20;91.50;;;;;;5095141;28;20343;-70
2023/08/23 08:05:01;;;;;;;;;;;27.20;91.50;;;;;;5094896;28;19908;-70
2023/08/23 08:07:28;;;;;;;;;;;27.20;91.50;;;;;;5094921;28;20361;-70
2023/08/23 08:09:53;;;;;;;;;;;27.20;91.50;;;;;;5094906;28;20343;-70
2023/08/23 08:12:19;;;;;;;;;;;27.20;91.50;;;;;;5095012;28;19978;-70
2023/08/23 08:14:44;;;;;;;;;;;27.20;91.60;;;;;;5094085;28;20072;-70
2023/08/23 08:17:10;;;;;;;;;;;27.20;91.50;;;;;;5094594;28;19916;-70
2023/08/23 08:19:35;;;;;;;;;;;27.20;91.50;;;;;;5094918;28;20007;-70
2023/08/23 08:22:00;;;;;;;;;;;27.20;91.60;;;;;;5094905;28;20004;-71
2023/08/23 08:24:27;;;;;;;;;;;27.20;91.60;;;;;;5094600;28;20374;-71
2023/08/23 08:26:52;;;;;;;;;;;27.20;91.60;;;;;;5094414;28;19908;-70
2023/08/23 08:29:18;;;;;;;;;;;27.20;91.60;;;;;;5094785;28;19958;-65
2023/08/23 08:31:43;;;;;;;;;;;27.20;91.60;;;;;;5094684;28;19947;-70
2023/08/23 08:34:09;;;;;;;;;;;27.20;91.60;;;;;;5094370;28;19912;-70
2023/08/23 08:36:34;;;;;;;;;;;27.20;91.60;;;;;;5094364;28;20336;-70
2023/08/23 08:38:59;;;;;;;;;;;27.20;91.60;;;;;;5094524;28;19908;-70
2023/08/23 08:41:25;;;;;;;;;;;27.20;91.60;;;;;;5094536;28;20003;-70
2023/08/23 08:43:52;;;;;;;;;;;27.20;91.60;;;;;;5094517;28;19908;-70
2023/08/23 08:46:17;;;;;;;;;;;27.20;91.70;;;;;;5092797;28;19927;-70
2023/08/23 08:48:44;;;;;;;;;;;27.20;91.60;;;;;;5094380;28;19916;-71
2023/08/23 08:51:18;;;;;;;;;;;27.20;91.60;;;;;;5094237;28;19966;-71
2023/08/23 08:53:45;;;;;;;;;;;27.20;91.60;;;;;;5094535;28;19960;-69
2023/08/23 08:56:11;;;;;;;;;;;27.20;91.60;;;;;;5094117;28;19909;-71
2023/08/23 08:58:37;;;;;;;;;;;27.20;91.60;;;;;;5093894;28;20408;-72
2023/08/23 09:01:02;;;;;;;;;;;27.20;91.60;;;;;;5094098;28;19965;-71
2023/08/23 09:03:28;;;;;;;;;;;27.20;91.60;;;;;;5094211;28;19908;-71
2023/08/23 09:05:54;;;;;;;;;;;27.20;91.60;;;;;;5094337;28;19961;-72
2023/08/23 09:08:20;;;;;;;;;;;27.20;91.60;;;;;;5092980;28;19912;-70
2023/08/23 09:10:45;;;;;;;;;;;27.20;91.60;;;;;;5094063;28;19991;-71
2023/08/23 09:13:10;;;;;;;;;;;27.20;91.60;;;;;;5094069;28;19912;-72
2023/08/23 09:15:36;;;;;;;;;;;27.20;91.60;;;;;;5094321;28;19919;-71
2023/08/23 09:18:02;;;;;;;;;;;27.20;91.60;;;;;;5093432;28;19955;-71
2023/08/23 09:20:27;;;;;;;;;;;27.20;91.60;;;;;;5093586;28;19909;-72
2023/08/23 09:22:53;;;;;;;;;;;27.20;91.60;;;;;;5093716;28;20003;-71
2023/08/23 09:25:19;;;;;;;;;;;27.20;91.60;;;;;;5093606;28;19912;-72
2023/08/23 09:27:45;;;;;;;;;;;27.20;91.60;;;;;;5094138;28;19915;-69
2023/08/23 09:30:11;;;;;;;;;;;27.20;91.60;;;;;;5093702;28;19912;-71
2023/08/23 09:32:37;;;;;;;;;;;27.20;91.60;;;;;;5093551;28;19916;-72
2023/08/23 09:35:16;;;;;;;;;;;27.20;91.60;;;;;;5093791;28;19915;-72
2023/08/23 09:37:46;;;;;;;;;;;27.20;91.60;;;;;;5093723;28;20005;-72
2023/08/23 09:40:18;;;;;;;;;;;27.20;91.60;;;;;;5093996;28;19999;-72
2023/08/23 09:42:44;;;;;;;;;;;27.20;91.60;;;;;;5093661;28;19908;-72
2023/08/23 09:45:11;;;;;;;;;;;27.20;91.60;;;;;;5091900;28;19931;-72
2023/08/23 09:47:37;;;;;;;;;;;27.20;91.60;;;;;;5093252;28;20004;-71
2023/08/23 09:50:03;;;;;;;;;;;27.20;91.60;;;;;;5093091;28;19954;-71
2023/08/23 09:52:31;;;;;;;;;;;27.20;91.60;;;;;;5093322;28;19912;-71
2023/08/23 09:55:02;;;;;;;;;;;27.20;91.60;;;;;;5093435;28;20006;-72
2023/08/23 09:57:27;;;;;;;;;;;27.20;91.70;;;;;;5092072;28;19919;-72
2023/08/23 09:59:53;;;;;;;;;;;27.20;91.70;;;;;;5092405;28;20003;-72
2023/08/23 10:02:19;;;;;;;;;;;27.20;91.70;;;;;;5093698;28;19908;-71
2023/08/23 10:04:44;;;;;;;;;;;27.20;91.70;;;;;;5093529;28;20015;-72
2023/08/23 10:07:13;;;;;;;;;;;27.20;91.70;;;;;;5093028;28;20347;-72
2023/08/23 10:09:40;;;;;;;;;;;27.20;91.70;;;;;;5093380;28;19912;-72
2023/08/23 10:12:06;;;;;;;;;;;27.20;91.70;;;;;;5093458;28;19961;-72
2023/08/23 10:14:34;;;;;;;;;;;27.20;91.70;;;;;;5093140;28;20316;-72
2023/08/23 10:17:01;;;;;;;;;;;27.20;91.70;;;;;;5093330;28;19999;-72
2023/08/23 10:19:26;;;;;;;;;;;27.20;91.70;;;;;;5094095;28;20036;-72
2023/08/23 10:21:52;;;;;;;;;;;27.20;91.70;;;;;;5095748;28;19991;-71
2023/08/23 10:24:17;;;;;;;;;;;27.20;91.70;;;;;;5096791;28;19909;-72
2023/08/23 10:26:44;;;;;;;;;;;27.20;91.70;;;;;;5096708;28;20286;-72
2023/08/23 10:29:10;;;;;;;;;;;27.20;91.70;;;;;;5096530;28;20270;-72
2023/08/23 10:31:35;;;;;;;;;;;27.20;91.70;;;;;;5096807;28;19919;-72
2023/08/23 10:34:01;;;;;;;;;;;27.20;91.70;;;;;;5096598;28;20275;-72
2023/08/23 10:36:28;;;;;;;;;;;27.20;91.90;;;;;;5096568;28;19966;-72
2023/08/23 10:38:56;;;;;;;;;;;27.20;91.70;;;;;;5096806;28;19914;-72
2023/08/23 10:41:21;;;;;;;;;;;27.20;91.70;;;;;;5096378;28;19908;-64
2023/08/23 10:43:50;;;;;;;;;;;27.20;91.70;;;;;;5096786;28;19966;-70
2023/08/23 10:46:17;;;;;;;;;;;27.20;91.70;;;;;;5096335;28;19966;-72
2023/08/23 10:48:43;;;;;;;;;;;27.20;91.70;;;;;;5096485;28;19912;-72
2023/08/23 10:51:10;;;;;;;;;;;27.20;91.70;;;;;;5097004;28;20343;-72
2023/08/23 10:53:35;;;;;;;;;;;27.20;91.70;;;;;;5096344;28;19908;-72
2023/08/23 10:56:02;;;;;;;;;;;27.20;91.70;;;;;;5096442;28;19908;-72
2023/08/23 10:58:27;;;;;;;;;;;27.20;91.70;;;;;;5095877;28;19919;-72
2023/08/23 11:00:53;;;;;;;;;;;27.20;91.70;;;;;;5096443;28;19908;-72
2023/08/23 11:03:20;;;;;;;;;;;27.20;91.70;;;;;;5096344;28;19931;-72
2023/08/23 11:05:46;;;;;;;;;;;27.20;91.70;;;;;;5096033;28;20394;-72
2023/08/23 11:08:11;;;;;;;;;;;27.20;91.90;;;;;;5096419;28;19909;-72
2023/08/23 11:10:37;;;;;;;;;;;27.20;91.70;;;;;;5095950;28;20026;-72
2023/08/23 11:13:03;;;;;;;;;;;27.20;91.70;;;;;;5096098;28;19908;-72
2023/08/23 11:15:28;;;;;;;;;;;27.20;91.70;;;;;;5094620;28;20277;-72
2023/08/23 11:17:55;;;;;;;;;;;27.10;91.70;;;;;;5095961;28;19908;-71
2023/08/23 11:20:20;;;;;;;;;;;27.20;91.70;;;;;;5095891;28;19908;-71
2023/08/23 11:22:46;;;;;;;;;;;27.20;91.70;;;;;;5094826;28;20002;-72
2023/08/23 11:25:12;;;;;;;;;;;27.20;91.70;;;;;;5095665;28;19909;-72
2023/08/23 11:27:38;;;;;;;;;;;27.20;91.70;;;;;;5095338;28;20394;-71
2023/08/23 11:30:04;;;;;;;;;;;27.20;91.70;;;;;;5095764;28;20010;-71
2023/08/23 11:32:29;;;;;;;;;;;27.20;91.70;;;;;;5094847;28;19920;-71
2023/08/23 11:34:55;;;;;;;;;;;27.20;91.80;;;;;;5095355;28;19915;-71
2023/08/23 11:37:22;;;;;;;;;;;27.20;91.80;;;;;;5095245;28;20390;-71
2023/08/23 11:39:54;;;;;;;;;;;27.20;91.80;;;;;;5095377;28;19915;-68
2023/08/23 11:42:20;;;;;;;;;;;27.20;91.80;;;;;;5095707;28;19935;-71
2023/08/23 11:44:46;;;;;;;;;;;27.20;91.80;;;;;;5095041;28;19908;-71
2023/08/23 11:47:12;;;;;;;;;;;27.20;91.80;;;;;;5095882;28;19915;-71
2023/08/23 11:49:37;;;;;;;;;;;27.20;91.80;;;;;;5095176;28;19920;-72
2023/08/23 11:52:03;;;;;;;;;;;27.20;91.80;;;;;;5095184;28;20013;-71
2023/08/23 11:54:28;;;;;;;;;;;27.20;91.80;;;;;;5095128;28;19962;-71
2023/08/23 11:56:58;;;;;;;;;;;27.20;91.80;;;;;;5095075;28;19908;-71
2023/08/23 11:59:23;;;;;;;;;;;27.20;91.80;;;;;;5095098;28;19974;-66
2023/08/23 12:01:49;;;;;;;;;;;27.20;91.80;;;;;;5094937;28;19908;-68
2023/08/23 12:04:14;;;;;;;;;;;27.20;91.80;;;;;;5095124;28;20442;-72
2023/08/23 12:06:40;;;;;;;;;;;27.20;91.80;;;;;;5094861;28;19912;-72
2023/08/23 12:09:05;;;;;;;;;;;27.20;91.80;;;;;;5094599;28;19916;-72
2023/08/23 12:11:32;;;;;;;;;;;27.20;91.80;;;;;;5093880;28;19919;-72
2023/08/23 12:14:00;;;;;;;;;;;27.20;91.80;;;;;;5095007;28;19958;-73
2023/08/23 12:16:26;;;;;;;;;;;27.20;91.80;;;;;;5094949;28;19908;-71
2023/08/23 12:18:52;;;;;;;;;;;27.20;91.80;;;;;;5094416;28;19915;-74
2023/08/23 12:21:17;;;;;;;;;;;27.20;91.80;;;;;;5094809;28;19947;-72
2023/08/23 12:23:43;;;;;;;;;;;27.20;91.80;;;;;;5094866;28;19908;-73
2023/08/23 12:26:08;;;;;;;;;;;27.20;91.80;;;;;;5094702;28;19954;-73
2023/08/23 12:28:35;;;;;;;;;;;27.20;91.80;;;;;;5094653;28;19912;-73
2023/08/23 12:31:00;;;;;;;;;;;27.20;91.80;;;;;;5094826;28;19912;-72
2023/08/23 12:33:26;;;;;;;;;;;27.20;91.90;;;;;;5095115;28;19953;-73
2023/08/23 12:35:51;;;;;;;;;;;27.20;91.90;;;;;;5094642;28;19909;-73
2023/08/23 12:38:17;;;;;;;;;;;27.20;91.90;;;;;;5094181;28;19919;-72
2023/08/23 12:40:42;;;;;;;;;;;27.20;91.80;;;;;;5094492;28;19908;-73
2023/08/23 12:43:08;;;;;;;;;;;27.20;91.90;;;;;;5094084;28;19950;-73
2023/08/23 12:45:33;;;;;;;;;;;27.10;91.80;;;;;;5094459;28;19920;-73
2023/08/23 12:47:59;;;;;;;;;;;27.20;91.80;;;;;;5094131;28;19971;-72
2023/08/23 12:50:24;;;;;;;;;;;27.20;91.80;;;;;;5093983;28;19917;-73
2023/08/23 12:52:50;;;;;;;;;;;27.20;91.90;;;;;;5094008;28;19969;-71
2023/08/23 12:55:15;;;;;;;;;;;27.20;91.80;;;;;;5094176;28;19908;-71
2023/08/23 12:57:41;;;;;;;;;;;27.20;91.80;;;;;;5093964;28;19908;-73
2023/08/23 13:00:07;;;;;;;;;;;27.20;91.90;;;;;;5093940;28;19980;-73
2023/08/23 13:02:33;;;;;;;;;;;27.20;91.90;;;;;;5093960;28;19943;-73
2023/08/23 13:04:59;;;;;;;;;;;27.20;91.90;;;;;;5094069;28;19969;-72
2023/08/23 13:07:24;;;;;;;;;;;27.20;91.90;;;;;;5094134;28;19915;-72
2023/08/23 13:09:50;;;;;;;;;;;27.20;91.90;;;;;;5093875;28;19912;-73
2023/08/23 13:12:15;;;;;;;;;;;27.20;91.90;;;;;;5094144;28;19923;-73
2023/08/23 13:14:41;;;;;;;;;;;27.20;91.90;;;;;;5093981;28;19912;-72
2023/08/23 13:17:06;;;;;;;;;;;27.20;91.90;;;;;;5093619;28;19912;-73
2023/08/23 13:19:33;;;;;;;;;;;27.20;91.90;;;;;;5093881;28;19915;-73
2023/08/23 13:21:59;;;;;;;;;;;27.20;91.90;;;;;;5093669;28;19908;-72
2023/08/23 13:24:24;;;;;;;;;;;27.20;91.90;;;;;;5092324;28;20408;-72
2023/08/23 13:26:50;;;;;;;;;;;27.20;91.90;;;;;;5093846;28;19908;-73
2023/08/23 13:29:16;;;;;;;;;;;27.20;91.90;;;;;;5093807;28;19923;-73
2023/08/23 13:31:44;;;;;;;;;;;27.20;91.90;;;;;;5093569;28;20367;-73
2023/08/23 13:34:13;;;;;;;;;;;27.20;91.90;;;;;;5093845;28;19908;-72
2023/08/23 13:36:41;;;;;;;;;;;27.20;91.90;;;;;;5093484;28;19914;-73
2023/08/23 13:39:07;;;;;;;;;;;27.20;91.90;;;;;;5093755;28;19973;-73
2023/08/23 13:41:32;;;;;;;;;;;27.20;91.90;;;;;;5093334;28;19978;-73
2023/08/23 13:43:58;;;;;;;;;;;27.20;91.90;;;;;;5093594;28;20363;-72
2023/08/23 13:46:23;;;;;;;;;;;27.20;91.90;;;;;;5093222;28;20011;-72
2023/08/23 13:48:49;;;;;;;;;;;27.20;91.90;;;;;;5093133;28;19920;-73
2023/08/23 13:51:14;;;;;;;;;;;27.20;91.90;;;;;;5093768;28;20443;-73
2023/08/23 13:53:42;;;;;;;;;;;27.20;91.90;;;;;;5092331;28;19908;-73
2023/08/23 13:56:07;;;;;;;;;;;27.20;91.90;;;;;;5097642;28;19915;-73
2023/08/23 13:58:33;;;;;;;;;;;27.20;91.90;;;;;;5097789;28;19915;-72
2023/08/23 14:00:58;;;;;;;;;;;27.20;91.90;;;;;;5097439;28;19995;-73
2023/08/23 14:03:24;;;;;;;;;;;27.20;91.90;;;;;;5097607;28;19908;-72
2023/08/23 14:06:03;;;;;;;;;;;27.20;92.10;;;;;;5097340;28;19908;-73
2023/08/23 14:08:30;;;;;;;;;;;27.20;91.90;;;;;;5097284;28;19912;-73